Time;durP1;ratioP1;P1;durP2;ratioP2;P2;SDS_P1;SDS_P2;PMS_P1;PMS_P2;Temp;Humidity;BMP_temperature;BMP_pressure;BME280_temperature;BME280_humidity;BME280_pressure;Samples;Min_cycle;Max_cycle;Signal;HPM_P1;HPM_P2
2022/06/14 00:00:53;;;;;;;9.47;6.63;;;;;;;16.35;82.84;98708.31;4207428;28;21187;-91
2022/06/14 00:02:58;;;;;;;9.70;6.70;;;;;;;16.38;82.13;98713.31;4220346;28;20716;-91
2022/06/14 00:05:02;;;;;;;9.40;6.80;;;;;;;16.36;81.34;98709.97;4204379;28;21232;-91
2022/06/14 00:07:05;;;;;;;8.90;6.70;;;;;;;16.32;81.84;98719.06;4222712;28;20631;-91
2022/06/14 00:09:09;;;;;;;6.97;6.10;;;;;;;16.27;82.62;98716.81;4203759;28;21079;-90
2022/06/14 00:11:14;;;;;;;6.83;6.13;;;;;;;16.28;82.17;98715.00;4221073;28;20669;-91
2022/06/14 00:13:17;;;;;;;10.53;6.43;;;;;;;16.27;82.36;98716.00;4219287;28;20644;-90
2022/06/14 00:15:20;;;;;;;10.23;6.67;;;;;;;16.22;82.08;98715.50;4204586;28;20644;-91
2022/06/14 00:17:23;;;;;;;9.43;6.37;;;;;;;16.21;81.55;98709.38;4208376;28;20648;-90
2022/06/14 00:19:28;;;;;;;11.40;7.17;;;;;;;16.17;83.13;98704.50;4205992;28;20637;-90
2022/06/14 00:21:32;;;;;;;6.83;6.10;;;;;;;16.10;83.60;98712.06;4210977;28;20648;-91
2022/06/14 00:23:35;;;;;;;7.93;6.43;;;;;;;16.06;83.96;98707.16;4207142;28;20613;-90
2022/06/14 00:25:40;;;;;;;11.53;7.87;;;;;;;16.07;84.21;98706.19;4208889;28;20631;-90
2022/06/14 00:27:43;;;;;;;11.37;8.13;;;;;;;16.02;83.11;98701.28;4210044;28;20982;-91
2022/06/14 00:29:47;;;;;;;10.67;7.13;;;;;;;15.98;83.91;98703.47;4222960;28;20755;-90
2022/06/14 00:31:50;;;;;;;7.70;6.90;;;;;;;15.92;83.71;98701.31;4226457;28;20623;-90
2022/06/14 00:33:53;;;;;;;10.50;7.10;;;;;;;15.88;83.85;98708.63;4207563;28;20640;-90
2022/06/14 00:36:05;;;;;;;7.97;6.47;;;;;;;15.87;84.70;98708.75;4220542;28;21015;-91
2022/06/14 00:38:10;;;;;;;10.40;7.23;;;;;;;15.85;85.34;98708.88;4199968;28;20615;-90
2022/06/14 00:40:15;;;;;;;8.90;6.60;;;;;;;15.83;83.75;98702.03;4199677;28;21295;-90
2022/06/14 00:42:21;;;;;;;8.80;7.43;;;;;;;15.83;84.03;98710.78;4215374;28;20646;-91
2022/06/14 00:44:26;;;;;;;9.60;6.70;;;;;;;15.73;82.91;98699.31;4202476;28;20631;-90
2022/06/14 00:46:35;;;;;;;9.57;7.33;;;;;;;15.62;82.42;98699.34;4201795;28;20631;-90
2022/06/14 00:48:39;;;;;;;9.20;6.83;;;;;;;15.52;84.16;98700.16;4202992;28;21202;-91
2022/06/14 00:50:48;;;;;;;10.27;7.30;;;;;;;15.45;84.81;98703.41;4212734;28;20637;-91
2022/06/14 00:52:55;;;;;;;9.00;6.50;;;;;;;15.42;84.30;98703.63;4215815;28;20640;-90
2022/06/14 00:55:01;;;;;;;8.57;7.40;;;;;;;15.44;84.53;98706.97;4211000;28;20658;-91
2022/06/14 00:57:09;;;;;;;9.13;7.00;;;;;;;15.42;85.43;98704.47;4221170;28;20624;-91
2022/06/14 00:59:18;;;;;;;7.70;6.90;;;;;;;15.41;84.59;98702.81;4222415;28;20648;-91
2022/06/14 01:01:24;;;;;;;12.10;6.90;;;;;;;15.36;84.25;98697.06;4206570;28;20637;-90
2022/06/14 01:03:32;;;;;;;9.20;7.33;;;;;;;15.33;86.10;98694.66;4202287;28;20684;-90
2022/06/14 01:07:58;;;;;;;11.23;7.00;;;;;;;15.35;85.46;98697.16;4220461;28;20633;-90
2022/06/14 01:10:03;;;;;;;8.10;7.03;;;;;;;15.33;86.33;98699.91;4219649;28;20622;-91
2022/06/14 01:12:09;;;;;;;11.40;7.77;;;;;;;15.31;84.83;98695.75;4210498;28;20661;-90
2022/06/14 01:14:16;;;;;;;8.43;6.90;;;;;;;15.29;85.80;98687.13;4221913;28;21196;-91
2022/06/14 01:16:19;;;;;;;11.40;7.30;;;;;;;15.26;85.60;98690.00;4206200;28;21126;-89
2022/06/14 01:18:23;;;;;;;10.47;8.13;;;;;;;15.23;86.34;98693.72;4216860;28;20615;-91
2022/06/14 01:20:27;;;;;;;9.87;7.70;;;;;;;15.19;86.30;98686.19;4217295;28;20661;-90
2022/06/14 01:22:33;;;;;;;14.43;7.37;;;;;;;15.20;86.26;98695.75;4239508;27;20648;-90
2022/06/14 01:24:38;;;;;;;10.80;7.80;;;;;;;15.18;86.08;98687.13;4213809;28;20642;-89
2022/06/14 01:26:41;;;;;;;9.37;7.50;;;;;;;15.19;85.39;98688.81;4218810;28;20701;-90
2022/06/14 01:28:46;;;;;;;9.43;7.43;;;;;;;15.14;85.97;98685.69;4221059;28;20617;-90
2022/06/14 01:30:52;;;;;;;10.03;7.87;;;;;;;15.07;84.85;98679.22;4209263;28;20635;-91
2022/06/14 01:32:59;;;;;;;9.47;6.90;;;;;;;15.00;84.80;98683.25;4225569;28;20633;-90
2022/06/14 01:35:06;;;;;;;8.90;7.40;;;;;;;14.93;85.54;98671.56;4206613;28;20690;-90
2022/06/14 01:37:10;;;;;;;8.67;7.43;;;;;;;14.91;86.72;98678.69;4220749;28;20669;-90
2022/06/14 01:39:16;;;;;;;10.17;8.17;;;;;;;14.90;86.89;98677.03;4210078;28;21156;-91
2022/06/14 01:41:30;;;;;;;11.57;7.77;;;;;;;14.88;86.58;98678.09;4208488;28;20692;-91
2022/06/14 01:43:52;;;;;;;8.90;7.30;;;;;;;14.89;86.56;98682.41;4211784;28;20622;-90
2022/06/14 01:46:05;;;;;;;8.37;7.47;;;;;;;14.89;86.05;98682.41;4222056;28;20669;-90
2022/06/14 01:48:17;;;;;;;10.50;7.63;;;;;;;14.91;86.04;98685.75;4209682;28;20642;-91
2022/06/14 01:52:59;;;;;;;9.40;7.53;;;;;;;14.76;85.47;98684.28;4209120;28;21002;-89
2022/06/14 01:55:11;;;;;;;10.90;7.50;;;;;;;14.66;85.05;98678.91;4200667;28;20753;-90
2022/06/14 01:57:17;;;;;;;9.47;7.60;;;;;;;14.61;85.84;98673.16;4207845;28;20657;-91
2022/06/14 01:59:24;;;;;;;9.70;8.07;;;;;;;14.59;86.05;98676.03;4204747;28;20628;-90
2022/06/14 02:01:29;;;;;;;9.17;7.87;;;;;;;14.58;86.85;98672.53;4206554;28;20733;-90
2022/06/14 02:06:16;;;;;;;10.00;7.70;;;;;;;14.59;87.32;98684.72;4219362;28;20716;-91
2022/06/14 02:08:22;;;;;;;10.20;8.30;;;;;;;14.59;87.09;98692.59;4220105;28;20637;-89
2022/06/14 02:10:34;;;;;;;9.57;7.83;;;;;;;14.53;86.44;98679.09;4219444;28;20644;-91
2022/06/14 02:12:43;;;;;;;10.80;7.27;;;;;;;14.49;86.95;98677.66;4206117;28;20703;-90
2022/06/14 02:14:50;;;;;;;9.70;8.70;;;;;;;14.46;86.55;98683.94;4207401;28;20710;-90
2022/06/14 02:16:59;;;;;;;11.07;8.60;;;;;;;14.41;86.67;98674.75;4209109;28;20688;-90
2022/06/14 02:19:08;;;;;;;9.93;8.20;;;;;;;14.37;86.47;98675.94;4224332;28;20647;-91
2022/06/14 02:21:15;;;;;;;10.50;8.40;;;;;;;14.30;87.22;98677.34;4219654;28;21295;-90
2022/06/14 02:23:18;;;;;;;12.00;8.23;;;;;;;14.28;87.45;98679.22;4204469;28;20634;-91
2022/06/14 02:25:26;;;;;;;9.10;8.17;;;;;;;14.27;86.45;98690.69;4222313;28;20629;-91
2022/06/14 02:27:34;;;;;;;9.30;8.00;;;;;;;14.18;85.75;98679.06;4217516;28;20625;-90
2022/06/14 02:29:39;;;;;;;8.83;7.90;;;;;;;14.12;86.72;98681.31;4219422;28;20650;-90
2022/06/14 02:31:45;;;;;;;10.37;8.03;;;;;;;14.08;86.26;98676.41;4212145;28;20633;-91
2022/06/14 02:33:52;;;;;;;8.73;7.83;;;;;;;14.02;87.55;98682.88;4221350;28;20852;-90
2022/06/14 02:35:59;;;;;;;10.20;8.40;;;;;;;14.01;86.91;98675.13;4205992;28;20704;-91
2022/06/14 02:38:08;;;;;;;9.60;8.17;;;;;;;14.03;87.32;98681.94;4208708;28;21273;-90
2022/06/14 02:40:15;;;;;;;10.87;7.90;;;;;;;14.06;88.10;98681.75;4213034;28;20649;-90
2022/06/14 02:42:22;;;;;;;9.90;8.07;;;;;;;14.04;88.40;98678.34;4227601;28;20618;-90
2022/06/14 02:44:31;;;;;;;12.67;8.37;;;;;;;14.04;87.55;98685.41;4207891;28;20635;-91
2022/06/14 02:46:39;;;;;;;14.10;9.13;;;;;;;14.00;87.66;98674.31;4224854;28;20996;-90
2022/06/14 02:48:47;;;;;;;12.57;9.20;;;;;;;14.00;86.93;98676.09;4200278;28;20775;-91
2022/06/14 02:50:53;;;;;;;10.53;8.03;;;;;;;13.94;86.47;98679.16;4207577;28;20629;-90
2022/06/14 02:53:01;;;;;;;9.10;8.20;;;;;;;13.90;86.55;98680.31;4209619;28;20631;-90
2022/06/14 02:55:08;;;;;;;10.23;8.10;;;;;;;13.83;86.72;98676.47;4222949;28;20629;-90
2022/06/14 02:57:18;;;;;;;11.20;8.63;;;;;;;13.77;86.16;98676.91;4201592;28;21005;-90
2022/06/14 02:59:24;;;;;;;9.53;8.53;;;;;;;13.73;86.86;98678.09;4218760;28;20640;-90
2022/06/14 03:01:32;;;;;;;12.77;8.27;;;;;;;13.70;87.02;98681.75;4202673;28;20628;-90
2022/06/14 03:03:39;;;;;;;12.00;8.80;;;;;;;13.68;87.43;98667.91;4204145;28;20661;-90
2022/06/14 03:05:46;;;;;;;12.43;8.63;;;;;;;13.68;86.84;98675.78;4208958;28;20645;-89
2022/06/14 03:07:53;;;;;;;9.67;8.63;;;;;;;13.66;88.20;98674.22;4206211;28;20637;-90
2022/06/14 03:09:57;;;;;;;14.47;9.67;;;;;;;13.66;88.24;98677.66;4208483;28;20644;-90
2022/06/14 03:12:07;;;;;;;13.43;10.20;;;;;;;13.68;87.74;98672.31;4205277;28;20643;-90
2022/06/14 03:14:20;;;;;;;13.33;10.50;;;;;;;13.69;88.88;98677.44;4206259;28;20721;-90
2022/06/14 03:16:31;;;;;;;11.83;9.77;;;;;;;13.71;88.30;98677.34;4203217;28;21282;-91
2022/06/14 03:18:38;;;;;;;12.10;9.83;;;;;;;13.71;88.85;98680.81;4198820;28;20646;-90
2022/06/14 03:20:46;;;;;;;11.07;9.23;;;;;;;13.66;88.27;98685.53;4199145;28;20737;-90
2022/06/14 03:22:56;;;;;;;9.87;8.87;;;;;;;13.70;88.46;98680.91;4209886;28;20724;-90
2022/06/14 03:25:02;;;;;;;8.93;8.03;;;;;;;13.76;87.98;98688.34;4221904;28;20649;-90
2022/06/14 03:27:15;;;;;;;10.90;8.70;;;;;;;13.81;88.37;98696.72;4208751;28;20636;-91
2022/06/14 03:29:22;;;;;;;10.10;8.50;;;;;;;13.80;88.84;98693.28;4201707;28;20701;-90
2022/06/14 03:31:33;;;;;;;9.57;8.63;;;;;;;13.79;88.19;98691.59;4206728;28;20725;-90
2022/06/14 03:33:39;;;;;;;10.77;8.90;;;;;;;13.80;88.12;98698.50;4220856;28;20617;-90
2022/06/14 03:35:44;;;;;;;10.80;9.40;;;;;;;13.78;88.96;98695.13;4221272;28;20757;-90
2022/06/14 03:37:47;;;;;;;9.33;8.30;;;;;;;13.75;88.67;98695.34;4200480;28;20648;-90
2022/06/14 03:39:55;;;;;;;15.70;9.00;;;;;;;13.74;88.23;98696.31;4216906;28;20618;-91
2022/06/14 03:41:58;;;;;;;9.13;8.23;;;;;;;13.74;88.65;98696.31;4232927;27;20674;-90
2022/06/14 03:44:04;;;;;;;11.37;9.13;;;;;;;13.79;88.24;98688.97;4202899;28;21455;-90
2022/06/14 03:46:16;;;;;;;14.83;8.50;;;;;;;13.78;88.18;98689.91;4210877;28;20634;-91
2022/06/14 03:48:21;;;;;;;10.93;8.80;;;;;;;13.78;88.92;98678.59;4203577;28;20614;-90
2022/06/14 03:50:31;;;;;;;13.03;8.40;;;;;;;13.78;88.03;98684.66;4207023;28;20637;-90
2022/06/14 03:52:47;;;;;;;11.00;8.80;;;;;;;13.78;88.97;98686.44;4209651;28;20646;-90
2022/06/14 03:54:56;;;;;;;11.07;9.20;;;;;;;13.81;88.48;98694.09;4207904;28;20618;-90
2022/06/14 03:57:11;;;;;;;10.87;8.97;;;;;;;13.82;88.54;98688.75;4225014;28;20672;-90
2022/06/14 03:59:27;;;;;;;11.83;8.50;;;;;;;13.81;88.00;98689.69;4205397;28;20771;-91
2022/06/14 04:01:33;;;;;;;9.87;8.60;;;;;;;13.82;88.65;98683.50;4202228;28;20678;-90
2022/06/14 04:03:48;;;;;;;11.37;9.17;;;;;;;13.86;87.74;98689.34;4206771;28;20665;-91
2022/06/14 04:06:03;;;;;;;10.10;8.57;;;;;;;13.88;87.80;98682.22;4207480;28;20634;-90
2022/06/14 04:08:14;;;;;;;10.83;8.80;;;;;;;13.90;88.44;98683.78;4202384;28;20621;-91
2022/06/14 04:10:22;;;;;;;10.37;8.67;;;;;;;13.92;88.27;98681.91;4213002;28;20635;-91
2022/06/14 04:12:33;;;;;;;11.27;8.03;;;;;;;13.94;88.46;98687.88;4213393;28;21214;-91
2022/06/14 04:14:42;;;;;;;12.60;9.13;;;;;;;13.98;88.80;98684.09;4202737;28;20622;-91
2022/06/14 04:16:53;;;;;;;12.63;9.00;;;;;;;14.00;88.28;98686.59;4204937;28;20641;-91
2022/06/14 04:19:07;;;;;;;10.30;8.83;;;;;;;14.02;88.26;98684.69;4200810;28;20623;-92
2022/06/14 04:21:18;;;;;;;12.13;8.90;;;;;;;14.06;87.92;98694.88;4221679;28;20703;-91
2022/06/14 04:23:25;;;;;;;11.90;9.10;;;;;;;14.07;88.07;98693.91;4202983;28;20632;-87
2022/06/14 04:25:33;;;;;;;14.63;10.07;;;;;;;14.11;87.61;98691.91;4211287;28;21239;-87
2022/06/14 04:27:48;;;;;;;13.03;9.87;;;;;;;14.18;87.79;98696.63;4208808;28;21182;-89
2022/06/14 04:29:59;;;;;;;10.07;8.97;;;;;;;14.23;88.55;98691.84;4219353;28;20640;-87
2022/06/14 04:32:06;;;;;;;12.60;8.83;;;;;;;14.30;88.00;98698.34;4200090;28;20736;-89
2022/06/14 04:34:19;;;;;;;12.70;9.00;;;;;;;14.33;87.58;98691.06;4201981;28;20637;-88
2022/06/14 04:36:24;;;;;;;10.70;8.80;;;;;;;14.38;87.49;98690.72;4206835;28;20627;-88
2022/06/14 04:38:31;;;;;;;11.73;9.30;;;;;;;14.44;87.62;98687.66;4208462;28;20633;-88
2022/06/14 04:40:37;;;;;;;10.63;9.03;;;;;;;14.51;86.87;98691.47;4221866;28;20637;-88
2022/06/14 04:42:44;;;;;;;11.23;8.97;;;;;;;14.54;86.44;98691.25;4200958;28;20637;-88
2022/06/14 04:44:52;;;;;;;11.00;8.63;;;;;;;14.59;86.82;98696.03;4227634;27;20644;-89
2022/06/14 04:46:58;;;;;;;12.73;9.37;;;;;;;14.60;86.89;98696.91;4207688;28;20614;-89
2022/06/14 04:49:07;;;;;;;12.07;9.50;;;;;;;14.64;86.33;98699.19;4241225;27;20643;-89
2022/06/14 04:51:16;;;;;;;9.60;8.60;;;;;;;14.71;85.76;98696.94;4222727;28;20644;-88
2022/06/14 04:53:22;;;;;;;12.43;9.77;;;;;;;14.73;85.75;98685.38;4210980;28;20737;-88
2022/06/14 04:55:28;;;;;;;10.40;9.30;;;;;;;14.76;85.63;98690.41;4226233;28;20617;-88
2022/06/14 04:57:35;;;;;;;12.97;10.10;;;;;;;14.83;85.76;98704.72;4201106;28;20663;-88
2022/06/14 04:59:43;;;;;;;11.30;9.27;;;;;;;14.88;85.29;98686.81;4221234;28;21191;-88
2022/06/14 05:01:48;;;;;;;10.37;8.60;;;;;;;14.94;85.00;98694.22;4225498;28;20731;-89
2022/06/14 05:03:57;;;;;;;10.87;9.00;;;;;;;14.99;84.73;98693.88;4207456;28;20633;-89
2022/06/14 05:06:06;;;;;;;12.40;9.03;;;;;;;15.05;85.67;98694.28;4204937;28;20977;-89
2022/06/14 05:08:14;;;;;;;9.77;8.70;;;;;;;15.12;84.97;98693.69;4202366;28;21185;-89
2022/06/14 05:10:20;;;;;;;10.10;8.37;;;;;;;15.20;84.36;98695.75;4231124;28;21211;-89
2022/06/14 05:12:26;;;;;;;10.37;8.83;;;;;;;15.27;84.94;98689.88;4201870;28;20735;-89
2022/06/14 05:14:32;;;;;;;10.80;8.97;;;;;;;15.36;85.10;98688.34;4210390;28;20724;-89
2022/06/14 05:16:38;;;;;;;12.50;9.00;;;;;;;15.44;86.05;98694.69;4208763;28;20724;-89
2022/06/14 05:18:46;;;;;;;13.80;8.77;;;;;;;15.52;85.23;98699.34;4207663;28;20673;-89
2022/06/14 05:20:54;;;;;;;11.97;8.77;;;;;;;15.61;84.96;98700.28;4211288;28;20629;-89
2022/06/14 05:23:02;;;;;;;11.20;9.30;;;;;;;15.70;86.04;98699.56;4209517;28;20637;-89
2022/06/14 05:25:08;;;;;;;15.87;9.07;;;;;;;15.79;85.54;98701.47;4226539;27;20672;-89
2022/06/14 05:27:26;;;;;;;12.53;9.90;;;;;;;15.91;84.19;98700.50;4225172;28;20623;-89
2022/06/14 05:29:34;;;;;;;11.47;8.57;;;;;;;16.02;82.47;98696.03;4206638;28;20630;-89
2022/06/14 05:31:44;;;;;;;13.17;9.20;;;;;;;16.15;82.22;98703.78;4205297;28;21584;-90
2022/06/14 05:33:53;;;;;;;9.83;8.03;;;;;;;16.29;82.17;98700.91;4201914;28;20634;-87
2022/06/14 05:36:00;;;;;;;10.60;9.10;;;;;;;16.48;82.67;98699.28;4210555;28;20626;-88
2022/06/14 05:38:13;;;;;;;10.73;8.80;;;;;;;16.75;82.13;98705.72;4210704;28;20650;-88
2022/06/14 05:40:27;;;;;;;11.40;8.40;;;;;;;17.01;80.59;98699.09;4206939;28;20638;-87
2022/06/14 05:42:34;;;;;;;10.17;8.90;;;;;;;17.35;80.07;98703.19;4209227;28;20650;-86
2022/06/14 05:44:42;;;;;;;9.07;7.87;;;;;;;17.68;77.75;98706.41;4223007;28;20770;-88
2022/06/14 05:46:47;;;;;;;10.27;8.50;;;;;;;18.02;77.08;98711.25;4208606;28;20648;-89
2022/06/14 05:48:52;;;;;;;11.50;8.80;;;;;;;18.41;76.71;98718.31;4208063;28;20639;-90
2022/06/14 05:50:56;;;;;;;11.47;9.07;;;;;;;18.77;75.63;98721.94;4210330;28;20635;-90
2022/06/14 05:53:04;;;;;;;10.70;8.40;;;;;;;19.10;73.66;98717.03;4205575;28;21246;-89
2022/06/14 05:55:11;;;;;;;9.30;7.60;;;;;;;19.44;73.02;98727.00;4220553;28;20663;-87
2022/06/14 05:57:19;;;;;;;10.03;7.77;;;;;;;19.76;72.59;98723.97;4202515;28;20632;-87
2022/06/14 05:59:31;;;;;;;9.93;7.97;;;;;;;19.95;70.80;98730.88;4202573;28;20694;-87
2022/06/14 06:01:38;;;;;;;10.13;7.80;;;;;;;20.16;68.82;98730.59;4198277;28;20632;-87
2022/06/14 06:03:45;;;;;;;9.60;7.80;;;;;;;20.31;70.59;98727.31;4216964;28;20698;-87
2022/06/14 06:05:53;;;;;;;12.70;8.00;;;;;;;20.49;69.24;98731.66;4204552;28;20630;-87
2022/06/14 06:08:01;;;;;;;11.67;8.53;;;;;;;20.79;69.08;98726.00;4216119;28;20640;-87
2022/06/14 06:10:08;;;;;;;8.80;7.90;;;;;;;21.02;69.55;98732.53;4202461;28;20635;-86
2022/06/14 06:12:19;;;;;;;8.67;7.30;;;;;;;21.26;67.59;98727.38;4220082;28;20650;-87
2022/06/14 06:14:26;;;;;;;12.00;8.07;;;;;;;21.56;67.73;98730.44;4206428;28;20630;-87
2022/06/14 06:16:34;;;;;;;9.30;7.77;;;;;;;21.86;69.25;98736.06;4200657;28;20763;-87
2022/06/14 06:18:40;;;;;;;9.90;7.90;;;;;;;22.13;67.54;98725.22;4197608;28;20656;-87
2022/06/14 06:20:50;;;;;;;13.43;8.40;;;;;;;22.38;67.44;98726.00;4222928;28;20640;-87
2022/06/14 06:22:58;;;;;;;9.23;7.73;;;;;;;22.57;66.65;98717.75;4203711;28;20644;-87
2022/06/14 06:25:04;;;;;;;12.13;8.03;;;;;;;22.77;66.15;98721.78;4219409;28;21197;-87
2022/06/14 06:27:09;;;;;;;10.00;8.17;;;;;;;22.98;63.30;98725.63;4215453;28;21047;-86
2022/06/14 06:29:16;;;;;;;10.20;8.13;;;;;;;23.21;64.61;98719.50;4211311;28;20638;-86
2022/06/14 06:31:22;;;;;;;9.33;7.67;;;;;;;23.42;64.11;98724.28;4217362;28;20639;-86
2022/06/14 06:33:26;;;;;;;10.80;8.10;;;;;;;23.68;65.00;98726.59;4209986;28;20638;-87
2022/06/14 06:35:49;;;;;;;9.10;8.20;;;;;;;23.88;63.70;98722.53;4212092;28;20630;-87
2022/06/14 06:37:57;;;;;;;9.67;7.83;;;;;;;24.08;62.33;98717.63;4201566;28;20652;-87
2022/06/14 06:40:03;;;;;;;12.83;7.53;;;;;;;24.17;63.31;98720.91;4207080;28;20682;-86
2022/06/14 06:42:11;;;;;;;9.00;7.03;;;;;;;24.29;61.47;98716.84;4227576;28;20662;-87
2022/06/14 06:44:18;;;;;;;10.03;7.70;;;;;;;24.37;60.64;98716.84;4227579;28;21052;-87
2022/06/14 06:46:23;;;;;;;10.90;7.60;;;;;;;24.51;60.38;98713.44;4208883;28;20639;-87
2022/06/14 06:48:32;;;;;;;10.43;7.97;;;;;;;24.54;58.64;98710.41;4211032;28;21212;-87
2022/06/14 06:50:38;;;;;;;9.80;7.60;;;;;;;24.65;60.41;98716.16;4218360;28;20716;-87
2022/06/14 06:52:48;;;;;;;7.70;6.90;;;;;;;24.77;58.68;98706.75;4224437;28;20654;-87
2022/06/14 06:54:57;;;;;;;10.03;7.63;;;;;;;24.80;59.40;98710.91;4213964;28;21210;-87
2022/06/14 06:57:01;;;;;;;10.23;7.73;;;;;;;24.86;59.86;98708.34;4217887;28;20631;-87
2022/06/14 06:59:09;;;;;;;8.03;7.10;;;;;;;24.93;58.66;98711.16;4219552;28;20645;-87
2022/06/14 07:01:16;;;;;;;9.40;7.43;;;;;;;25.07;59.76;98697.88;4212556;28;20629;-87
2022/06/14 07:03:24;;;;;;;7.70;6.90;;;;;;;25.18;57.52;98692.09;4207703;28;21258;-87
2022/06/14 07:05:27;;;;;;;11.73;8.10;;;;;;;25.15;57.87;98693.28;4208922;28;20623;-87
2022/06/14 07:07:36;;;;;;;10.77;7.60;;;;;;;25.26;59.82;98700.03;4200123;28;20691;-87
2022/06/14 07:09:44;;;;;;;9.37;6.90;;;;;;;25.46;59.53;98704.66;4216823;28;20631;-87
2022/06/14 07:11:50;;;;;;;9.27;7.00;;;;;;;25.69;59.55;98700.13;4205605;28;20628;-87
2022/06/14 07:13:54;;;;;;;8.87;7.10;;;;;;;25.87;59.10;98706.75;4204967;28;21064;-87
2022/06/14 07:16:05;;;;;;;9.07;7.83;;;;;;;25.97;59.50;98693.13;4239208;27;20622;-87
2022/06/14 07:18:17;;;;;;;13.43;7.30;;;;;;;26.14;58.35;98701.56;4219352;28;20709;-87
2022/06/14 07:20:37;;;;;;;8.77;7.00;;;;;;;26.29;58.65;98705.06;4235681;27;20731;-87
2022/06/14 07:22:44;;;;;;;7.87;6.97;;;;;;;26.39;58.07;98705.63;4239080;27;20758;-87
2022/06/14 07:24:54;;;;;;;10.53;6.80;;;;;;;26.49;57.21;98703.47;4210181;28;20657;-87
2022/06/14 07:27:23;;;;;;;10.00;7.80;;;;;;;26.65;58.76;98698.69;4222272;28;20628;-90
2022/06/14 07:29:29;;;;;;;9.40;7.53;;;;;;;26.67;57.23;98696.69;4205779;28;21190;-87
2022/06/14 07:31:36;;;;;;;8.47;7.00;;;;;;;26.85;57.79;98694.41;4212867;28;20634;-87
2022/06/14 07:33:41;;;;;;;10.10;6.83;;;;;;;26.87;56.30;98700.38;4221346;28;20635;-87
2022/06/14 07:35:48;;;;;;;8.20;7.07;;;;;;;27.00;58.08;98699.69;4222034;27;20637;-87
2022/06/14 07:37:58;;;;;;;9.47;6.43;;;;;;;27.09;56.93;98691.34;4204920;28;20680;-87
2022/06/14 07:40:26;;;;;;;9.50;7.70;;;;;;;27.17;54.78;98696.56;4214013;28;20627;-87
2022/06/14 07:42:35;;;;;;;10.20;6.90;;;;;;;27.29;57.63;98697.69;4198026;28;20623;-87
2022/06/14 07:44:46;;;;;;;9.93;7.03;;;;;;;27.41;56.59;98701.47;4197989;28;20643;-87
2022/06/14 07:46:59;;;;;;;10.03;6.70;;;;;;;27.42;55.18;98697.78;4227883;28;21196;-87
2022/06/14 07:49:09;;;;;;;8.47;6.70;;;;;;;27.46;55.45;98697.22;4226496;28;20634;-87
2022/06/14 07:51:19;;;;;;;7.70;6.90;;;;;;;27.51;55.00;98697.47;4199871;28;20705;-87
2022/06/14 07:53:27;;;;;;;7.83;7.07;;;;;;;27.54;54.23;98697.09;4215084;28;20677;-87
2022/06/14 07:55:35;;;;;;;8.90;6.97;;;;;;;27.41;53.38;98688.09;4216060;28;20641;-87
2022/06/14 07:57:44;;;;;;;7.47;6.70;;;;;;;27.48;53.74;98703.19;4219147;28;20626;-87
2022/06/14 07:59:52;;;;;;;8.73;6.27;;;;;;;27.67;55.86;98691.81;4201507;28;20651;-87
2022/06/14 08:02:00;;;;;;;7.60;6.63;;;;;;;27.90;54.66;98698.56;4205821;28;21200;-87
2022/06/14 08:04:10;;;;;;;11.13;6.80;;;;;;;27.98;53.14;98690.38;4223186;28;20729;-88
2022/06/14 08:06:17;;;;;;;7.90;6.10;;;;;;;28.13;54.86;98694.59;4216373;28;20748;-87
2022/06/14 08:08:23;;;;;;;8.00;6.17;;;;;;;28.17;52.35;98692.34;4204954;28;20632;-87
2022/06/14 08:10:29;;;;;;;9.00;6.50;;;;;;;28.25;54.15;98689.47;4217095;28;20668;-87
2022/06/14 08:12:36;;;;;;;7.70;6.40;;;;;;;28.26;53.73;98694.63;4216487;28;20643;-87
2022/06/14 08:14:43;;;;;;;8.93;6.47;;;;;;;28.34;50.98;98693.63;4205101;28;20671;-87
2022/06/14 08:16:48;;;;;;;7.80;6.00;;;;;;;28.41;52.63;98695.31;4218106;28;20721;-87
2022/06/14 08:18:54;;;;;;;8.57;5.80;;;;;;;28.56;51.23;98685.25;4225553;28;20699;-87
2022/06/14 08:21:01;;;;;;;8.07;5.80;;;;;;;28.54;49.22;98687.31;4221765;28;20616;-87
2022/06/14 08:23:08;;;;;;;8.47;6.50;;;;;;;28.61;49.92;98686.31;4206904;28;20620;-86
2022/06/14 08:25:16;;;;;;;6.40;5.70;;;;;;;28.63;49.54;98689.59;4216380;28;20617;-87
2022/06/14 08:27:24;;;;;;;6.63;5.37;;;;;;;28.66;48.73;98696.44;4217821;28;20635;-86
2022/06/14 08:29:31;;;;;;;8.37;5.40;;;;;;;28.67;51.21;98690.03;4203032;28;20735;-87
2022/06/14 08:31:37;;;;;;;8.00;5.60;;;;;;;28.67;49.76;98692.75;4205455;28;20999;-87
2022/06/14 08:33:46;;;;;;;8.33;5.63;;;;;;;28.72;48.04;98699.16;4188908;28;20984;-87
2022/06/14 08:35:51;;;;;;;7.90;6.40;;;;;;;28.80;48.04;98692.78;4210162;28;20637;-87
2022/06/14 08:37:59;;;;;;;6.40;5.40;;;;;;;28.76;49.50;98686.16;4203038;28;20978;-86
2022/06/14 08:40:15;;;;;;;9.00;5.43;;;;;;;28.73;51.85;98691.94;4217505;28;21246;-85
2022/06/14 08:42:33;;;;;;;6.50;5.90;;;;;;;28.74;51.17;98688.22;4215538;28;20740;-87
2022/06/14 08:44:40;;;;;;;7.07;6.03;;;;;;;28.79;52.94;98693.78;4194785;28;20670;-89
2022/06/14 08:46:55;;;;;;;6.70;5.53;;;;;;;28.95;52.35;98693.44;4203343;28;20627;-87
2022/06/14 08:49:09;;;;;;;7.97;6.00;;;;;;;28.99;52.27;98693.63;4207343;28;20664;-88
2022/06/14 08:51:15;;;;;;;8.10;5.67;;;;;;;29.04;52.09;98679.56;4196274;28;20631;-88
2022/06/14 08:53:41;;;;;;;7.57;5.97;;;;;;;29.09;49.79;98683.31;4205190;28;20647;-88
2022/06/14 08:56:02;;;;;;;6.70;5.57;;;;;;;29.02;50.08;98690.53;4214494;28;21336;-88
2022/06/14 08:58:27;;;;;;;9.80;6.00;;;;;;;29.02;48.04;98677.09;4220990;28;20665;-88
2022/06/14 09:00:53;;;;;;;8.83;6.60;;;;;;;29.05;51.10;98682.06;4186633;28;20659;-88
2022/06/14 09:03:32;;;;;;;9.67;6.60;;;;;;;29.00;51.40;98681.00;4202776;28;20677;-88
2022/06/14 09:05:53;;;;;;;7.43;5.87;;;;;;;29.01;48.89;98672.75;4198178;28;20635;-88
2022/06/14 09:08:40;;;;;;;7.50;5.30;;;;;;;28.97;50.51;98667.16;4222256;28;20627;-88
2022/06/14 09:11:09;;;;;;;6.90;5.77;;;;;;;29.03;50.17;98659.94;4129341;28;20718;-88
2022/06/14 09:13:43;;;;;;;10.63;5.93;;;;;;;28.98;48.43;98658.91;4173131;28;20749;-88
2022/06/14 09:16:20;;;;;;;6.13;5.10;;;;;;;28.92;47.32;98656.22;4198401;28;20760;-88
2022/06/14 09:18:37;;;;;;;9.37;5.23;;;;;;;28.88;51.91;98655.78;4218432;28;20667;-88
2022/06/14 09:20:45;;;;;;;7.83;5.87;;;;;;;28.75;46.96;98649.59;4217584;28;20642;-88
2022/06/14 09:23:14;;;;;;;6.57;5.50;;;;;;;28.61;48.57;98647.84;4224020;28;20639;-88
2022/06/14 09:25:32;;;;;;;6.23;5.23;;;;;;;28.42;48.12;98637.09;4202723;28;20654;-88
2022/06/14 09:27:51;;;;;;;7.30;5.40;;;;;;;28.36;46.93;98643.28;4205278;28;20741;-88
2022/06/14 09:30:06;;;;;;;6.70;5.53;;;;;;;28.12;48.88;98641.13;4238046;27;20614;-88
2022/06/14 09:35:23;;;;;;;6.60;5.80;;;;;;;28.29;53.04;98628.97;4203147;28;21240;-88
2022/06/14 09:37:47;;;;;;;6.67;5.33;;;;;;;28.37;49.31;98626.97;4218493;28;20633;-88
2022/06/14 09:40:10;;;;;;;7.20;5.73;;;;;;;28.24;52.33;98626.09;4211815;28;21120;-94
2022/06/14 09:42:31;;;;;;;7.83;5.43;;;;;;;28.27;51.89;98623.00;4219971;28;21010;-89
2022/06/14 09:45:07;;;;;;;8.10;5.93;;;;;;;28.30;50.72;98620.72;4228482;28;20647;-89
2022/06/14 09:47:40;;;;;;;6.80;6.00;;;;;;;28.34;49.39;98627.34;4208741;27;20674;-88
2022/06/14 09:50:17;;;;;;;8.40;5.93;;;;;;;28.24;49.55;98629.59;4203225;28;21281;-88
2022/06/14 09:53:08;;;;;;;7.77;5.47;;;;;;;28.14;50.41;98623.75;4198113;28;20740;-88
2022/06/14 09:55:40;;;;;;;7.07;6.00;;;;;;;28.11;53.25;98617.97;4158131;28;20680;-88
2022/06/14 09:58:03;;;;;;;7.43;6.00;;;;;;;28.06;50.10;98615.03;4217347;28;20654;-89
2022/06/14 10:00:32;;;;;;;10.23;6.20;;;;;;;28.09;53.05;98615.50;4208372;28;20722;-88
2022/06/14 10:03:01;;;;;;;8.40;6.30;;;;;;;28.22;51.70;98615.56;4210748;28;21176;-88
2022/06/14 10:05:23;;;;;;;7.73;5.90;;;;;;;28.27;51.24;98618.44;4203883;28;20643;-89
2022/06/14 10:07:46;;;;;;;6.20;5.53;;;;;;;28.33;52.04;98616.81;4216636;28;20641;-88
2022/06/14 10:10:19;;;;;;;7.10;5.83;;;;;;;28.35;49.32;98618.25;4197207;28;20688;-88
2022/06/14 10:12:34;;;;;;;11.10;6.23;;;;;;;28.28;48.17;98613.91;4189319;28;21216;-88
2022/06/14 10:14:45;;;;;;;7.70;5.57;;;;;;;28.13;51.37;98611.38;4207728;28;20645;-88
2022/06/14 10:17:04;;;;;;;6.70;5.50;;;;;;;28.12;48.33;98599.00;4218321;28;20641;-88
2022/06/14 10:19:21;;;;;;;6.70;5.10;;;;;;;27.95;47.67;98604.91;4221475;28;21377;-88